sensor_id;sensor_type;location;lat;lon;timestamp;temperature;humidity
15359;DHT22;7779;49.596;11.070;2023-08-01T00:01:31;19.10;71.30
15359;DHT22;7779;49.596;11.070;2023-08-01T00:03:57;19.10;71.40
15359;DHT22;7779;49.596;11.070;2023-08-01T00:06:23;19.10;71.50
15359;DHT22;7779;49.596;11.070;2023-08-01T00:08:50;19.10;71.60
15359;DHT22;7779;49.596;11.070;2023-08-01T00:11:17;19.10;71.70
15359;DHT22;7779;49.596;11.070;2023-08-01T00:13:42;19.10;71.80
15359;DHT22;7779;49.596;11.070;2023-08-01T00:16:09;19.10;71.90
15359;DHT22;7779;49.596;11.070;2023-08-01T00:18:35;19.10;72.00
15359;DHT22;7779;49.596;11.070;2023-08-01T00:21:02;19.10;72.10
15359;DHT22;7779;49.596;11.070;2023-08-01T00:23:30;19.10;72.10
15359;DHT22;7779;49.596;11.070;2023-08-01T00:25:57;19.10;72.20
15359;DHT22;7779;49.596;11.070;2023-08-01T00:28:22;19.10;72.40
15359;DHT22;7779;49.596;11.070;2023-08-01T00:30:48;19.10;72.50
15359;DHT22;7779;49.596;11.070;2023-08-01T00:33:14;19.10;72.50
15359;DHT22;7779;49.596;11.070;2023-08-01T00:35:40;19.10;72.60
15359;DHT22;7779;49.596;11.070;2023-08-01T00:38:06;19.10;72.70
15359;DHT22;7779;49.596;11.070;2023-08-01T00:40:33;19.10;72.90
15359;DHT22;7779;49.596;11.070;2023-08-01T00:42:59;19.10;73.00
15359;DHT22;7779;49.596;11.070;2023-08-01T00:45:26;19.20;73.10
15359;DHT22;7779;49.596;11.070;2023-08-01T00:47:53;19.20;73.30
15359;DHT22;7779;49.596;11.070;2023-08-01T00:50:20;19.20;73.40
15359;DHT22;7779;49.596;11.070;2023-08-01T00:52:47;19.20;73.40
15359;DHT22;7779;49.596;11.070;2023-08-01T00:55:16;19.20;73.40
15359;DHT22;7779;49.596;11.070;2023-08-01T00:57:42;19.20;73.50
15359;DHT22;7779;49.596;11.070;2023-08-01T01:00:09;19.20;73.60
15359;DHT22;7779;49.596;11.070;2023-08-01T01:02:36;19.10;73.60
15359;DHT22;7779;49.596;11.070;2023-08-01T01:05:03;19.10;74.20
15359;DHT22;7779;49.596;11.070;2023-08-01T01:07:29;19.20;73.70
15359;DHT22;7779;49.596;11.070;2023-08-01T01:09:57;19.20;73.80
15359;DHT22;7779;49.596;11.070;2023-08-01T01:12:23;19.10;73.90
15359;DHT22;7779;49.596;11.070;2023-08-01T01:14:49;19.10;73.90
15359;DHT22;7779;49.596;11.070;2023-08-01T01:17:15;19.10;73.90
15359;DHT22;7779;49.596;11.070;2023-08-01T01:19:41;19.10;73.90
15359;DHT22;7779;49.596;11.070;2023-08-01T01:22:07;19.10;74.00
15359;DHT22;7779;49.596;11.070;2023-08-01T01:24:36;19.10;74.00
15359;DHT22;7779;49.596;11.070;2023-08-01T01:27:04;19.10;74.00
15359;DHT22;7779;49.596;11.070;2023-08-01T01:29:33;19.10;74.00
15359;DHT22;7779;49.596;11.070;2023-08-01T01:32:00;19.10;74.40
15359;DHT22;7779;49.596;11.070;2023-08-01T01:34:27;19.10;74.10
15359;DHT22;7779;49.596;11.070;2023-08-01T01:36:54;19.10;74.10
15359;DHT22;7779;49.596;11.070;2023-08-01T01:39:20;19.10;74.20
15359;DHT22;7779;49.596;11.070;2023-08-01T01:41:46;19.10;74.30
15359;DHT22;7779;49.596;11.070;2023-08-01T01:44:12;19.00;74.30
15359;DHT22;7779;49.596;11.070;2023-08-01T01:46:38;19.00;74.40
15359;DHT22;7779;49.596;11.070;2023-08-01T01:49:03;19.00;74.50
15359;DHT22;7779;49.596;11.070;2023-08-01T01:51:30;19.00;74.50
15359;DHT22;7779;49.596;11.070;2023-08-01T01:53:56;19.00;74.30
15359;DHT22;7779;49.596;11.070;2023-08-01T01:56:22;19.00;74.40
15359;DHT22;7779;49.596;11.070;2023-08-01T01:58:48;19.00;74.60
15359;DHT22;7779;49.596;11.070;2023-08-01T02:01:14;19.00;74.70
15359;DHT22;7779;49.596;11.070;2023-08-01T02:03:39;19.00;74.80
15359;DHT22;7779;49.596;11.070;2023-08-01T02:06:06;19.00;74.90
15359;DHT22;7779;49.596;11.070;2023-08-01T02:08:32;19.00;74.90
15359;DHT22;7779;49.596;11.070;2023-08-01T02:10:58;19.00;75.00
15359;DHT22;7779;49.596;11.070;2023-08-01T02:13:28;19.00;75.00
15359;DHT22;7779;49.596;11.070;2023-08-01T02:15:54;19.00;75.50
15359;DHT22;7779;49.596;11.070;2023-08-01T02:18:20;18.90;75.00
15359;DHT22;7779;49.596;11.070;2023-08-01T02:20:46;18.90;75.10
15359;DHT22;7779;49.596;11.070;2023-08-01T02:23:12;18.90;75.20
15359;DHT22;7779;49.596;11.070;2023-08-01T02:25:41;18.90;75.30
15359;DHT22;7779;49.596;11.070;2023-08-01T02:28:08;18.90;75.80
15359;DHT22;7779;49.596;11.070;2023-08-01T02:30:38;18.90;75.40
15359;DHT22;7779;49.596;11.070;2023-08-01T02:33:04;18.90;75.90
15359;DHT22;7779;49.596;11.070;2023-08-01T02:35:30;18.90;75.50
15359;DHT22;7779;49.596;11.070;2023-08-01T02:37:56;18.90;75.70
15359;DHT22;7779;49.596;11.070;2023-08-01T02:40:22;18.90;75.70
15359;DHT22;7779;49.596;11.070;2023-08-01T02:42:48;18.90;75.80
15359;DHT22;7779;49.596;11.070;2023-08-01T02:45:14;18.90;75.80
15359;DHT22;7779;49.596;11.070;2023-08-01T02:47:40;18.90;75.60
15359;DHT22;7779;49.596;11.070;2023-08-01T02:50:06;18.90;75.70
15359;DHT22;7779;49.596;11.070;2023-08-01T02:52:32;18.90;76.50
15359;DHT22;7779;49.596;11.070;2023-08-01T02:54:58;18.90;76.00
15359;DHT22;7779;49.596;11.070;2023-08-01T02:57:23;18.90;76.20
15359;DHT22;7779;49.596;11.070;2023-08-01T02:59:49;19.00;76.40
15359;DHT22;7779;49.596;11.070;2023-08-01T03:02:15;18.90;76.40
15359;DHT22;7779;49.596;11.070;2023-08-01T03:04:41;18.90;76.30
15359;DHT22;7779;49.596;11.070;2023-08-01T03:07:07;18.90;76.40
15359;DHT22;7779;49.596;11.070;2023-08-01T03:09:32;18.90;76.40
15359;DHT22;7779;49.596;11.070;2023-08-01T03:11:58;18.90;76.50
15359;DHT22;7779;49.596;11.070;2023-08-01T03:14:24;18.90;76.60
15359;DHT22;7779;49.596;11.070;2023-08-01T03:16:50;18.90;76.70
15359;DHT22;7779;49.596;11.070;2023-08-01T03:19:16;18.90;76.70
15359;DHT22;7779;49.596;11.070;2023-08-01T03:21:41;18.90;76.80
15359;DHT22;7779;49.596;11.070;2023-08-01T03:24:07;18.90;76.80
15359;DHT22;7779;49.596;11.070;2023-08-01T03:26:35;18.90;76.80
15359;DHT22;7779;49.596;11.070;2023-08-01T03:29:01;18.90;76.80
15359;DHT22;7779;49.596;11.070;2023-08-01T03:31:28;18.90;76.80
15359;DHT22;7779;49.596;11.070;2023-08-01T03:33:54;18.90;76.80
15359;DHT22;7779;49.596;11.070;2023-08-01T03:36:20;18.90;76.80
15359;DHT22;7779;49.596;11.070;2023-08-01T03:38:46;18.90;76.90
15359;DHT22;7779;49.596;11.070;2023-08-01T03:41:12;18.90;76.90
15359;DHT22;7779;49.596;11.070;2023-08-01T03:43:39;18.90;76.90
15359;DHT22;7779;49.596;11.070;2023-08-01T03:46:05;18.90;76.90
15359;DHT22;7779;49.596;11.070;2023-08-01T03:48:32;18.90;76.90
15359;DHT22;7779;49.596;11.070;2023-08-01T03:50:58;18.90;76.90
15359;DHT22;7779;49.596;11.070;2023-08-01T03:53:26;18.90;76.90
15359;DHT22;7779;49.596;11.070;2023-08-01T03:55:51;18.90;77.00
15359;DHT22;7779;49.596;11.070;2023-08-01T03:58:17;18.90;77.10
15359;DHT22;7779;49.596;11.070;2023-08-01T04:00:43;18.90;77.20
15359;DHT22;7779;49.596;11.070;2023-08-01T04:03:08;18.90;77.20
15359;DHT22;7779;49.596;11.070;2023-08-01T04:05:34;18.90;77.30
15359;DHT22;7779;49.596;11.070;2023-08-01T04:08:00;18.90;77.40
15359;DHT22;7779;49.596;11.070;2023-08-01T04:10:25;18.80;77.40
15359;DHT22;7779;49.596;11.070;2023-08-01T04:12:51;18.90;77.50
15359;DHT22;7779;49.596;11.070;2023-08-01T04:15:17;18.90;77.50
15359;DHT22;7779;49.596;11.070;2023-08-01T04:17:43;18.90;77.60
15359;DHT22;7779;49.596;11.070;2023-08-01T04:20:09;18.90;77.50
15359;DHT22;7779;49.596;11.070;2023-08-01T04:22:34;18.90;77.50
15359;DHT22;7779;49.596;11.070;2023-08-01T04:25:03;18.90;77.60
15359;DHT22;7779;49.596;11.070;2023-08-01T04:27:30;18.90;78.00
15359;DHT22;7779;49.596;11.070;2023-08-01T04:29:56;18.80;77.50
15359;DHT22;7779;49.596;11.070;2023-08-01T04:32:21;18.90;77.70
15359;DHT22;7779;49.596;11.070;2023-08-01T04:34:47;18.80;77.60
15359;DHT22;7779;49.596;11.070;2023-08-01T04:37:13;18.90;77.80
15359;DHT22;7779;49.596;11.070;2023-08-01T04:39:39;18.90;78.60
15359;DHT22;7779;49.596;11.070;2023-08-01T04:42:05;18.80;78.00
15359;DHT22;7779;49.596;11.070;2023-08-01T04:44:31;18.90;78.10
15359;DHT22;7779;49.596;11.070;2023-08-01T04:46:57;18.90;78.10
15359;DHT22;7779;49.596;11.070;2023-08-01T04:49:23;18.90;78.20
15359;DHT22;7779;49.596;11.070;2023-08-01T04:51:51;18.90;78.90
15359;DHT22;7779;49.596;11.070;2023-08-01T04:54:17;18.80;78.40
15359;DHT22;7779;49.596;11.070;2023-08-01T04:56:42;18.90;78.30
15359;DHT22;7779;49.596;11.070;2023-08-01T04:59:08;18.90;78.40
15359;DHT22;7779;49.596;11.070;2023-08-01T05:01:34;18.90;78.40
15359;DHT22;7779;49.596;11.070;2023-08-01T05:03:59;18.90;78.40
15359;DHT22;7779;49.596;11.070;2023-08-01T05:06:25;18.90;78.40
15359;DHT22;7779;49.596;11.070;2023-08-01T05:08:53;18.90;78.50
15359;DHT22;7779;49.596;11.070;2023-08-01T05:11:19;18.90;78.60
15359;DHT22;7779;49.596;11.070;2023-08-01T05:13:45;18.90;78.60
15359;DHT22;7779;49.596;11.070;2023-08-01T05:16:11;18.90;78.70
15359;DHT22;7779;49.596;11.070;2023-08-01T05:18:36;18.90;78.80
15359;DHT22;7779;49.596;11.070;2023-08-01T05:21:02;19.00;79.00
15359;DHT22;7779;49.596;11.070;2023-08-01T05:23:28;19.00;79.00
15359;DHT22;7779;49.596;11.070;2023-08-01T05:25:54;19.00;79.00
15359;DHT22;7779;49.596;11.070;2023-08-01T05:28:19;19.00;79.00
15359;DHT22;7779;49.596;11.070;2023-08-01T05:30:46;19.00;79.00
15359;DHT22;7779;49.596;11.070;2023-08-01T05:33:12;19.00;79.00
15359;DHT22;7779;49.596;11.070;2023-08-01T05:35:38;19.00;79.00
15359;DHT22;7779;49.596;11.070;2023-08-01T05:38:04;19.10;79.00
15359;DHT22;7779;49.596;11.070;2023-08-01T05:40:29;19.10;79.00
15359;DHT22;7779;49.596;11.070;2023-08-01T05:42:55;19.10;79.10
15359;DHT22;7779;49.596;11.070;2023-08-01T05:45:21;19.10;79.20
15359;DHT22;7779;49.596;11.070;2023-08-01T05:47:46;19.10;79.10
15359;DHT22;7779;49.596;11.070;2023-08-01T05:50:12;19.10;79.10
15359;DHT22;7779;49.596;11.070;2023-08-01T05:52:38;19.10;79.10
15359;DHT22;7779;49.596;11.070;2023-08-01T05:55:04;19.10;79.00
15359;DHT22;7779;49.596;11.070;2023-08-01T05:57:30;19.10;79.00
15359;DHT22;7779;49.596;11.070;2023-08-01T05:59:56;19.10;79.00
15359;DHT22;7779;49.596;11.070;2023-08-01T06:02:21;19.20;79.20
15359;DHT22;7779;49.596;11.070;2023-08-01T06:04:47;19.20;79.20
15359;DHT22;7779;49.596;11.070;2023-08-01T06:07:13;19.20;79.30
15359;DHT22;7779;49.596;11.070;2023-08-01T06:09:38;19.20;79.30
15359;DHT22;7779;49.596;11.070;2023-08-01T06:12:04;19.20;79.40
15359;DHT22;7779;49.596;11.070;2023-08-01T06:14:31;19.20;79.40
15359;DHT22;7779;49.596;11.070;2023-08-01T06:16:56;19.20;79.50
15359;DHT22;7779;49.596;11.070;2023-08-01T06:19:22;19.20;79.60
15359;DHT22;7779;49.596;11.070;2023-08-01T06:21:48;19.20;79.70
15359;DHT22;7779;49.596;11.070;2023-08-01T06:24:13;19.30;79.80
15359;DHT22;7779;49.596;11.070;2023-08-01T06:26:39;19.20;79.70
15359;DHT22;7779;49.596;11.070;2023-08-01T06:29:05;19.30;79.70
15359;DHT22;7779;49.596;11.070;2023-08-01T06:31:30;19.30;79.60
15359;DHT22;7779;49.596;11.070;2023-08-01T06:33:56;19.30;80.30
15359;DHT22;7779;49.596;11.070;2023-08-01T06:36:23;19.30;79.70
15359;DHT22;7779;49.596;11.070;2023-08-01T06:38:48;19.30;79.70
15359;DHT22;7779;49.596;11.070;2023-08-01T06:41:14;19.30;79.80
15359;DHT22;7779;49.596;11.070;2023-08-01T06:43:40;19.30;79.80
15359;DHT22;7779;49.596;11.070;2023-08-01T06:46:06;19.30;79.80
15359;DHT22;7779;49.596;11.070;2023-08-01T06:48:31;19.30;79.30
15359;DHT22;7779;49.596;11.070;2023-08-01T06:51:00;19.30;79.90
15359;DHT22;7779;49.596;11.070;2023-08-01T06:53:27;19.40;80.00
15359;DHT22;7779;49.596;11.070;2023-08-01T06:55:53;19.40;80.10
15359;DHT22;7779;49.596;11.070;2023-08-01T06:58:18;19.40;80.10
15359;DHT22;7779;49.596;11.070;2023-08-01T07:00:44;19.40;80.10
15359;DHT22;7779;49.596;11.070;2023-08-01T07:03:10;19.40;80.20
15359;DHT22;7779;49.596;11.070;2023-08-01T07:05:36;19.40;80.20
15359;DHT22;7779;49.596;11.070;2023-08-01T07:08:02;19.40;80.20
15359;DHT22;7779;49.596;11.070;2023-08-01T07:10:28;19.40;80.20
15359;DHT22;7779;49.596;11.070;2023-08-01T07:12:54;19.50;80.40
15359;DHT22;7779;49.596;11.070;2023-08-01T07:15:19;19.50;80.60
15359;DHT22;7779;49.596;11.070;2023-08-01T07:17:45;19.50;80.60
15359;DHT22;7779;49.596;11.070;2023-08-01T07:20:11;19.50;80.60
15359;DHT22;7779;49.596;11.070;2023-08-01T07:22:37;19.50;80.50
15359;DHT22;7779;49.596;11.070;2023-08-01T07:25:03;19.60;80.70
15359;DHT22;7779;49.596;11.070;2023-08-01T07:27:28;19.60;80.60
15359;DHT22;7779;49.596;11.070;2023-08-01T07:29:54;19.60;80.60
15359;DHT22;7779;49.596;11.070;2023-08-01T07:32:20;19.60;80.60
15359;DHT22;7779;49.596;11.070;2023-08-01T07:34:45;19.70;80.50
15359;DHT22;7779;49.596;11.070;2023-08-01T07:37:11;19.70;80.50
15359;DHT22;7779;49.596;11.070;2023-08-01T07:39:37;19.60;80.40
15359;DHT22;7779;49.596;11.070;2023-08-01T07:42:03;19.70;80.50
15359;DHT22;7779;49.596;11.070;2023-08-01T07:44:30;19.70;80.50
15359;DHT22;7779;49.596;11.070;2023-08-01T07:46:57;19.70;80.40
15359;DHT22;7779;49.596;11.070;2023-08-01T07:49:23;19.70;80.30
15359;DHT22;7779;49.596;11.070;2023-08-01T07:51:48;19.80;80.40
15359;DHT22;7779;49.596;11.070;2023-08-01T07:54:14;19.70;80.30
15359;DHT22;7779;49.596;11.070;2023-08-01T07:56:40;19.70;80.30
15359;DHT22;7779;49.596;11.070;2023-08-01T07:59:06;19.80;80.50
15359;DHT22;7779;49.596;11.070;2023-08-01T08:01:31;19.80;81.10
15359;DHT22;7779;49.596;11.070;2023-08-01T08:03:57;19.80;80.50
15359;DHT22;7779;49.596;11.070;2023-08-01T08:06:23;19.80;80.40
15359;DHT22;7779;49.596;11.070;2023-08-01T08:08:49;19.80;80.40
15359;DHT22;7779;49.596;11.070;2023-08-01T08:11:15;19.80;80.30
15359;DHT22;7779;49.596;11.070;2023-08-01T08:13:42;19.80;80.40
15359;DHT22;7779;49.596;11.070;2023-08-01T08:16:08;19.80;80.30
15359;DHT22;7779;49.596;11.070;2023-08-01T08:18:33;19.80;80.20
15359;DHT22;7779;49.596;11.070;2023-08-01T08:20:59;19.80;80.40
15359;DHT22;7779;49.596;11.070;2023-08-01T08:23:25;19.80;80.50
15359;DHT22;7779;49.596;11.070;2023-08-01T08:25:50;19.80;80.50
15359;DHT22;7779;49.596;11.070;2023-08-01T08:28:30;19.80;80.50
15359;DHT22;7779;49.596;11.070;2023-08-01T08:30:59;19.80;81.30
15359;DHT22;7779;49.596;11.070;2023-08-01T08:33:27;19.80;80.50
15359;DHT22;7779;49.596;11.070;2023-08-01T08:35:53;19.80;80.60
15359;DHT22;7779;49.596;11.070;2023-08-01T08:38:18;19.80;80.80
15359;DHT22;7779;49.596;11.070;2023-08-01T08:41:08;19.80;80.90
15359;DHT22;7779;49.596;11.070;2023-08-01T08:43:42;19.80;82.40
15359;DHT22;7779;49.596;11.070;2023-08-01T08:46:09;19.80;80.90
15359;DHT22;7779;49.596;11.070;2023-08-01T08:48:35;19.80;80.70
15359;DHT22;7779;49.596;11.070;2023-08-01T08:51:03;19.80;80.70
15359;DHT22;7779;49.596;11.070;2023-08-01T08:53:30;19.80;80.60
15359;DHT22;7779;49.596;11.070;2023-08-01T08:55:59;19.80;80.60
15359;DHT22;7779;49.596;11.070;2023-08-01T08:58:26;19.80;80.50
15359;DHT22;7779;49.596;11.070;2023-08-01T09:00:52;19.90;80.50
15359;DHT22;7779;49.596;11.070;2023-08-01T09:03:17;19.90;80.50
15359;DHT22;7779;49.596;11.070;2023-08-01T09:05:50;19.80;80.50
15359;DHT22;7779;49.596;11.070;2023-08-01T09:08:21;19.90;80.50
15359;DHT22;7779;49.596;11.070;2023-08-01T09:10:49;19.90;80.40
15359;DHT22;7779;49.596;11.070;2023-08-01T09:13:15;19.90;81.20
15359;DHT22;7779;49.596;11.070;2023-08-01T09:15:42;19.90;80.80
15359;DHT22;7779;49.596;11.070;2023-08-01T09:18:09;19.90;80.80
15359;DHT22;7779;49.596;11.070;2023-08-01T09:21:02;19.90;80.90
15359;DHT22;7779;49.596;11.070;2023-08-01T09:23:28;19.90;82.20
15359;DHT22;7779;49.596;11.070;2023-08-01T09:25:55;20.00;81.30
15359;DHT22;7779;49.596;11.070;2023-08-01T09:28:24;19.90;81.20
15359;DHT22;7779;49.596;11.070;2023-08-01T09:30:54;20.00;81.70
15359;DHT22;7779;49.596;11.070;2023-08-01T09:33:21;20.10;81.60
15359;DHT22;7779;49.596;11.070;2023-08-01T09:35:51;20.10;81.50
15359;DHT22;7779;49.596;11.070;2023-08-01T09:38:17;20.10;81.40
15359;DHT22;7779;49.596;11.070;2023-08-01T09:40:44;20.20;81.40
15359;DHT22;7779;49.596;11.070;2023-08-01T09:43:12;20.20;81.20
15359;DHT22;7779;49.596;11.070;2023-08-01T09:45:48;20.20;81.00
15359;DHT22;7779;49.596;11.070;2023-08-01T09:48:26;20.30;81.10
15359;DHT22;7779;49.596;11.070;2023-08-01T09:51:10;20.40;81.50
15359;DHT22;7779;49.596;11.070;2023-08-01T09:53:57;20.50;81.80
15359;DHT22;7779;49.596;11.070;2023-08-01T09:56:24;20.50;81.50
15359;DHT22;7779;49.596;11.070;2023-08-01T09:58:53;20.60;81.40
15359;DHT22;7779;49.596;11.070;2023-08-01T10:01:22;20.60;81.20
15359;DHT22;7779;49.596;11.070;2023-08-01T10:03:52;20.70;81.00
15359;DHT22;7779;49.596;11.070;2023-08-01T10:06:20;20.80;81.50
15359;DHT22;7779;49.596;11.070;2023-08-01T10:08:53;20.90;80.70
15359;DHT22;7779;49.596;11.070;2023-08-01T10:11:22;20.90;80.50
15359;DHT22;7779;49.596;11.070;2023-08-01T10:13:49;21.00;80.50
15359;DHT22;7779;49.596;11.070;2023-08-01T10:16:15;21.00;80.40
15359;DHT22;7779;49.596;11.070;2023-08-01T10:18:42;21.10;80.20
15359;DHT22;7779;49.596;11.070;2023-08-01T10:21:13;21.10;79.80
15359;DHT22;7779;49.596;11.070;2023-08-01T10:23:39;21.10;79.40
15359;DHT22;7779;49.596;11.070;2023-08-01T10:26:07;21.20;79.30
15359;DHT22;7779;49.596;11.070;2023-08-01T10:28:39;21.10;78.40
15359;DHT22;7779;49.596;11.070;2023-08-01T10:31:10;21.20;79.10
15359;DHT22;7779;49.596;11.070;2023-08-01T10:33:42;21.20;78.90
15359;DHT22;7779;49.596;11.070;2023-08-01T10:38:54;21.20;79.20
15359;DHT22;7779;49.596;11.070;2023-08-01T10:41:35;21.30;79.10
15359;DHT22;7779;49.596;11.070;2023-08-01T10:44:12;21.30;78.70
15359;DHT22;7779;49.596;11.070;2023-08-01T10:46:56;21.30;78.50
15359;DHT22;7779;49.596;11.070;2023-08-01T10:49:37;21.30;78.50
15359;DHT22;7779;49.596;11.070;2023-08-01T10:52:24;21.30;78.60
15359;DHT22;7779;49.596;11.070;2023-08-01T10:55:03;21.40;78.70
15359;DHT22;7779;49.596;11.070;2023-08-01T10:57:34;21.40;78.80
15359;DHT22;7779;49.596;11.070;2023-08-01T11:00:02;21.40;79.00
15359;DHT22;7779;49.596;11.070;2023-08-01T11:02:30;21.50;79.30
15359;DHT22;7779;49.596;11.070;2023-08-01T11:05:03;21.50;79.20
15359;DHT22;7779;49.596;11.070;2023-08-01T11:07:31;21.60;78.80
15359;DHT22;7779;49.596;11.070;2023-08-01T11:10:12;21.60;77.90
15359;DHT22;7779;49.596;11.070;2023-08-01T11:12:43;21.70;78.80
15359;DHT22;7779;49.596;11.070;2023-08-01T11:15:13;21.70;78.80
15359;DHT22;7779;49.596;11.070;2023-08-01T11:17:47;21.80;78.70
15359;DHT22;7779;49.596;11.070;2023-08-01T11:20:15;21.90;78.90
15359;DHT22;7779;49.596;11.070;2023-08-01T11:25:19;22.00;78.90
15359;DHT22;7779;49.596;11.070;2023-08-01T11:27:56;22.10;79.30
15359;DHT22;7779;49.596;11.070;2023-08-01T11:30:30;22.20;79.50
15359;DHT22;7779;49.596;11.070;2023-08-01T11:32:57;22.40;78.90
15359;DHT22;7779;49.596;11.070;2023-08-01T11:35:23;22.40;78.80
15359;DHT22;7779;49.596;11.070;2023-08-01T11:37:50;22.50;78.30
15359;DHT22;7779;49.596;11.070;2023-08-01T11:40:17;22.60;77.70
15359;DHT22;7779;49.596;11.070;2023-08-01T11:42:48;22.60;76.90
15359;DHT22;7779;49.596;11.070;2023-08-01T11:45:16;22.60;76.20
15359;DHT22;7779;49.596;11.070;2023-08-01T11:47:46;22.50;74.80
15359;DHT22;7779;49.596;11.070;2023-08-01T11:50:13;22.50;73.30
15359;DHT22;7779;49.596;11.070;2023-08-01T11:52:40;22.40;72.10
15359;DHT22;7779;49.596;11.070;2023-08-01T11:55:06;22.20;70.90
15359;DHT22;7779;49.596;11.070;2023-08-01T11:57:32;22.00;70.60
15359;DHT22;7779;49.596;11.070;2023-08-01T11:59:58;21.70;70.70
15359;DHT22;7779;49.596;11.070;2023-08-01T12:02:25;21.50;71.10
15359;DHT22;7779;49.596;11.070;2023-08-01T12:04:53;21.40;71.90
15359;DHT22;7779;49.596;11.070;2023-08-01T12:07:19;21.30;72.80
15359;DHT22;7779;49.596;11.070;2023-08-01T12:09:59;21.20;73.40
15359;DHT22;7779;49.596;11.070;2023-08-01T12:12:27;21.10;73.80
15359;DHT22;7779;49.596;11.070;2023-08-01T12:14:53;21.10;74.00
15359;DHT22;7779;49.596;11.070;2023-08-01T12:17:20;21.10;74.60
15359;DHT22;7779;49.596;11.070;2023-08-01T12:19:46;21.10;74.80
15359;DHT22;7779;49.596;11.070;2023-08-01T12:22:12;21.10;75.10
15359;DHT22;7779;49.596;11.070;2023-08-01T12:24:38;21.20;75.30
15359;DHT22;7779;49.596;11.070;2023-08-01T12:27:08;21.30;75.60
15359;DHT22;7779;49.596;11.070;2023-08-01T12:29:34;21.30;75.10
15359;DHT22;7779;49.596;11.070;2023-08-01T12:32:02;21.30;74.90
15359;DHT22;7779;49.596;11.070;2023-08-01T12:34:28;21.40;74.90
15359;DHT22;7779;49.596;11.070;2023-08-01T12:36:54;21.50;75.10
15359;DHT22;7779;49.596;11.070;2023-08-01T12:39:20;21.50;75.20
15359;DHT22;7779;49.596;11.070;2023-08-01T12:41:46;21.50;75.00
15359;DHT22;7779;49.596;11.070;2023-08-01T12:44:11;21.60;74.90
15359;DHT22;7779;49.596;11.070;2023-08-01T12:46:41;21.60;74.80
15359;DHT22;7779;49.596;11.070;2023-08-01T12:49:07;21.60;74.80
15359;DHT22;7779;49.596;11.070;2023-08-01T12:51:32;21.60;75.20
15359;DHT22;7779;49.596;11.070;2023-08-01T12:53:58;21.70;75.90
15359;DHT22;7779;49.596;11.070;2023-08-01T12:56:24;21.70;76.20
15359;DHT22;7779;49.596;11.070;2023-08-01T12:58:49;21.90;76.60
15359;DHT22;7779;49.596;11.070;2023-08-01T13:01:15;22.00;76.90
15359;DHT22;7779;49.596;11.070;2023-08-01T13:03:41;22.10;76.90
15359;DHT22;7779;49.596;11.070;2023-08-01T13:06:09;22.30;76.90
15359;DHT22;7779;49.596;11.070;2023-08-01T13:08:36;22.40;75.60
15359;DHT22;7779;49.596;11.070;2023-08-01T13:11:10;22.50;76.10
15359;DHT22;7779;49.596;11.070;2023-08-01T13:13:40;22.60;75.00
15359;DHT22;7779;49.596;11.070;2023-08-01T13:16:07;22.70;74.70
15359;DHT22;7779;49.596;11.070;2023-08-01T13:18:33;22.70;73.10
15359;DHT22;7779;49.596;11.070;2023-08-01T13:20:58;22.70;73.60
15359;DHT22;7779;49.596;11.070;2023-08-01T13:23:25;22.70;73.40
15359;DHT22;7779;49.596;11.070;2023-08-01T13:25:51;22.70;73.10
15359;DHT22;7779;49.596;11.070;2023-08-01T13:28:17;22.80;72.80
15359;DHT22;7779;49.596;11.070;2023-08-01T13:30:43;22.70;72.70
15359;DHT22;7779;49.596;11.070;2023-08-01T13:33:08;22.80;73.10
15359;DHT22;7779;49.596;11.070;2023-08-01T13:35:34;22.80;73.10
15359;DHT22;7779;49.596;11.070;2023-08-01T13:38:00;22.80;73.20
15359;DHT22;7779;49.596;11.070;2023-08-01T13:40:26;22.90;71.90
15359;DHT22;7779;49.596;11.070;2023-08-01T13:42:52;23.00;73.20
15359;DHT22;7779;49.596;11.070;2023-08-01T13:45:17;23.00;72.90
15359;DHT22;7779;49.596;11.070;2023-08-01T13:47:43;23.10;72.60
15359;DHT22;7779;49.596;11.070;2023-08-01T13:50:09;23.10;70.70
15359;DHT22;7779;49.596;11.070;2023-08-01T13:52:37;23.20;72.30
15359;DHT22;7779;49.596;11.070;2023-08-01T13:55:03;23.20;72.00
15359;DHT22;7779;49.596;11.070;2023-08-01T13:57:30;23.20;72.20
15359;DHT22;7779;49.596;11.070;2023-08-01T13:59:56;23.30;72.30
15359;DHT22;7779;49.596;11.070;2023-08-01T14:02:22;23.40;72.10
15359;DHT22;7779;49.596;11.070;2023-08-01T14:04:51;23.40;71.80
15359;DHT22;7779;49.596;11.070;2023-08-01T14:07:18;23.40;71.00
15359;DHT22;7779;49.596;11.070;2023-08-01T14:09:43;23.50;69.20
15359;DHT22;7779;49.596;11.070;2023-08-01T14:12:09;23.50;71.20
15359;DHT22;7779;49.596;11.070;2023-08-01T14:14:35;23.50;70.00
15359;DHT22;7779;49.596;11.070;2023-08-01T14:17:01;23.50;69.70
15359;DHT22;7779;49.596;11.070;2023-08-01T14:19:26;23.60;69.20
15359;DHT22;7779;49.596;11.070;2023-08-01T14:21:56;23.50;69.00
15359;DHT22;7779;49.596;11.070;2023-08-01T14:24:23;23.50;68.90
15359;DHT22;7779;49.596;11.070;2023-08-01T14:26:48;23.50;68.80
15359;DHT22;7779;49.596;11.070;2023-08-01T14:29:17;23.40;67.50
15359;DHT22;7779;49.596;11.070;2023-08-01T14:31:48;23.40;68.50
15359;DHT22;7779;49.596;11.070;2023-08-01T14:34:15;23.40;68.40
15359;DHT22;7779;49.596;11.070;2023-08-01T14:36:41;23.40;68.30
15359;DHT22;7779;49.596;11.070;2023-08-01T14:39:07;23.40;68.20
15359;DHT22;7779;49.596;11.070;2023-08-01T14:41:32;23.40;67.80
15359;DHT22;7779;49.596;11.070;2023-08-01T14:43:59;23.30;67.40
15359;DHT22;7779;49.596;11.070;2023-08-01T14:46:24;23.30;67.20
15359;DHT22;7779;49.596;11.070;2023-08-01T14:48:50;23.20;66.90
15359;DHT22;7779;49.596;11.070;2023-08-01T14:51:16;23.20;66.90
15359;DHT22;7779;49.596;11.070;2023-08-01T14:53:42;23.10;66.90
15359;DHT22;7779;49.596;11.070;2023-08-01T14:56:08;23.10;66.90
15359;DHT22;7779;49.596;11.070;2023-08-01T14:58:34;23.10;67.10
15359;DHT22;7779;49.596;11.070;2023-08-01T15:01:14;23.10;67.10
15359;DHT22;7779;49.596;11.070;2023-08-01T15:03:40;23.00;66.90
15359;DHT22;7779;49.596;11.070;2023-08-01T15:06:07;23.00;66.90
15359;DHT22;7779;49.596;11.070;2023-08-01T15:08:33;23.00;66.80
15359;DHT22;7779;49.596;11.070;2023-08-01T15:11:06;23.00;66.80
15359;DHT22;7779;49.596;11.070;2023-08-01T15:13:33;23.10;66.90
15359;DHT22;7779;49.596;11.070;2023-08-01T15:16:00;23.10;67.20
15359;DHT22;7779;49.596;11.070;2023-08-01T15:18:26;23.10;67.10
15359;DHT22;7779;49.596;11.070;2023-08-01T15:20:53;23.10;67.00
15359;DHT22;7779;49.596;11.070;2023-08-01T15:23:19;23.20;67.00
15359;DHT22;7779;49.596;11.070;2023-08-01T15:25:58;23.20;66.70
15359;DHT22;7779;49.596;11.070;2023-08-01T15:28:25;23.20;66.20
15359;DHT22;7779;49.596;11.070;2023-08-01T15:31:05;23.20;66.30
15359;DHT22;7779;49.596;11.070;2023-08-01T15:33:34;23.20;65.00
15359;DHT22;7779;49.596;11.070;2023-08-01T15:36:04;23.20;66.00